sensor_id;sensor_type;location;lat;lon;timestamp;P1;durP1;ratioP1;P2;durP2;ratioP2
64197;SDS011;50512;53.666;9.700;2022-07-30T00:00:58;11.73;;;4.95;;
64197;SDS011;50512;53.666;9.700;2022-07-30T00:03:23;15.23;;;4.85;;
64197;SDS011;50512;53.666;9.700;2022-07-30T00:05:49;11.48;;;5.30;;
64197;SDS011;50512;53.666;9.700;2022-07-30T00:08:14;11.65;;;4.97;;
64197;SDS011;50512;53.666;9.700;2022-07-30T00:10:40;10.45;;;4.38;;
64197;SDS011;50512;53.666;9.700;2022-07-30T00:13:06;9.23;;;4.88;;
64197;SDS011;50512;53.666;9.700;2022-07-30T00:15:33;11.63;;;4.30;;
64197;SDS011;50512;53.666;9.700;2022-07-30T00:17:58;13.52;;;5.38;;
64197;SDS011;50512;53.666;9.700;2022-07-30T00:20:24;14.27;;;5.28;;
64197;SDS011;50512;53.666;9.700;2022-07-30T00:22:49;15.50;;;5.47;;
64197;SDS011;50512;53.666;9.700;2022-07-30T00:25:16;12.65;;;4.88;;
64197;SDS011;50512;53.666;9.700;2022-07-30T00:27:41;12.13;;;4.68;;
64197;SDS011;50512;53.666;9.700;2022-07-30T00:30:07;15.02;;;4.93;;
64197;SDS011;50512;53.666;9.700;2022-07-30T00:32:35;13.02;;;4.88;;
64197;SDS011;50512;53.666;9.700;2022-07-30T00:35:00;14.38;;;5.20;;
64197;SDS011;50512;53.666;9.700;2022-07-30T00:37:26;9.68;;;4.63;;
64197;SDS011;50512;53.666;9.700;2022-07-30T00:39:51;16.02;;;5.28;;
64197;SDS011;50512;53.666;9.700;2022-07-30T00:42:17;10.95;;;4.75;;
64197;SDS011;50512;53.666;9.700;2022-07-30T00:44:42;8.85;;;4.43;;
64197;SDS011;50512;53.666;9.700;2022-07-30T00:47:08;14.07;;;5.22;;
64197;SDS011;50512;53.666;9.700;2022-07-30T00:49:34;13.88;;;5.20;;
64197;SDS011;50512;53.666;9.700;2022-07-30T00:52:00;13.65;;;4.57;;
64197;SDS011;50512;53.666;9.700;2022-07-30T00:54:25;12.98;;;4.82;;
64197;SDS011;50512;53.666;9.700;2022-07-30T00:56:51;8.90;;;4.90;;
64197;SDS011;50512;53.666;9.700;2022-07-30T00:59:16;9.98;;;4.60;;
64197;SDS011;50512;53.666;9.700;2022-07-30T01:01:42;11.93;;;5.13;;
64197;SDS011;50512;53.666;9.700;2022-07-30T01:04:07;14.35;;;4.90;;
64197;SDS011;50512;53.666;9.700;2022-07-30T01:06:34;10.65;;;4.80;;
64197;SDS011;50512;53.666;9.700;2022-07-30T01:09:00;11.40;;;4.65;;
64197;SDS011;50512;53.666;9.700;2022-07-30T01:11:27;13.45;;;5.22;;
64197;SDS011;50512;53.666;9.700;2022-07-30T01:13:58;10.45;;;4.88;;
64197;SDS011;50512;53.666;9.700;2022-07-30T01:16:23;12.10;;;6.13;;
64197;SDS011;50512;53.666;9.700;2022-07-30T01:18:49;11.93;;;5.15;;
64197;SDS011;50512;53.666;9.700;2022-07-30T01:21:17;10.18;;;5.35;;
64197;SDS011;50512;53.666;9.700;2022-07-30T01:23:49;11.77;;;4.95;;
64197;SDS011;50512;53.666;9.700;2022-07-30T01:26:21;12.73;;;5.93;;
64197;SDS011;50512;53.666;9.700;2022-07-30T01:28:48;14.75;;;5.18;;
64197;SDS011;50512;53.666;9.700;2022-07-30T01:31:15;10.00;;;5.07;;
64197;SDS011;50512;53.666;9.700;2022-07-30T01:33:43;13.50;;;5.95;;
64197;SDS011;50512;53.666;9.700;2022-07-30T01:36:11;10.45;;;5.53;;
64197;SDS011;50512;53.666;9.700;2022-07-30T01:38:44;13.82;;;5.25;;
64197;SDS011;50512;53.666;9.700;2022-07-30T01:41:10;16.33;;;4.97;;
64197;SDS011;50512;53.666;9.700;2022-07-30T01:43:40;10.95;;;4.90;;
64197;SDS011;50512;53.666;9.700;2022-07-30T01:46:08;11.98;;;4.63;;
64197;SDS011;50512;53.666;9.700;2022-07-30T01:48:36;11.13;;;4.97;;
64197;SDS011;50512;53.666;9.700;2022-07-30T01:51:04;11.68;;;4.55;;
64197;SDS011;50512;53.666;9.700;2022-07-30T01:53:31;9.60;;;5.30;;
64197;SDS011;50512;53.666;9.700;2022-07-30T01:56:00;11.40;;;4.82;;
64197;SDS011;50512;53.666;9.700;2022-07-30T01:58:27;15.82;;;5.63;;
64197;SDS011;50512;53.666;9.700;2022-07-30T02:00:57;12.10;;;5.13;;
64197;SDS011;50512;53.666;9.700;2022-07-30T02:03:22;13.85;;;5.07;;
64197;SDS011;50512;53.666;9.700;2022-07-30T02:05:49;13.07;;;4.90;;
64197;SDS011;50512;53.666;9.700;2022-07-30T02:08:21;11.60;;;4.82;;
64197;SDS011;50512;53.666;9.700;2022-07-30T02:10:53;14.80;;;5.00;;
64197;SDS011;50512;53.666;9.700;2022-07-30T02:13:22;14.07;;;5.57;;
64197;SDS011;50512;53.666;9.700;2022-07-30T02:15:53;8.65;;;4.85;;
64197;SDS011;50512;53.666;9.700;2022-07-30T02:18:25;12.98;;;5.72;;
64197;SDS011;50512;53.666;9.700;2022-07-30T02:20:56;14.02;;;5.60;;
64197;SDS011;50512;53.666;9.700;2022-07-30T02:23:24;11.02;;;5.07;;
64197;SDS011;50512;53.666;9.700;2022-07-30T02:25:51;12.93;;;5.32;;
64197;SDS011;50512;53.666;9.700;2022-07-30T02:28:18;11.23;;;5.40;;
64197;SDS011;50512;53.666;9.700;2022-07-30T02:30:46;11.32;;;5.63;;
64197;SDS011;50512;53.666;9.700;2022-07-30T02:33:16;12.60;;;5.13;;
64197;SDS011;50512;53.666;9.700;2022-07-30T02:35:45;18.65;;;5.18;;
64197;SDS011;50512;53.666;9.700;2022-07-30T02:38:11;13.70;;;5.10;;
64197;SDS011;50512;53.666;9.700;2022-07-30T02:40:40;9.98;;;5.10;;
64197;SDS011;50512;53.666;9.700;2022-07-30T02:43:07;16.17;;;5.93;;
64197;SDS011;50512;53.666;9.700;2022-07-30T02:45:33;18.98;;;5.50;;
64197;SDS011;50512;53.666;9.700;2022-07-30T02:48:00;11.60;;;5.32;;
64197;SDS011;50512;53.666;9.700;2022-07-30T02:50:31;14.32;;;5.55;;
64197;SDS011;50512;53.666;9.700;2022-07-30T02:52:57;14.18;;;5.47;;
64197;SDS011;50512;53.666;9.700;2022-07-30T02:55:24;14.90;;;5.60;;
64197;SDS011;50512;53.666;9.700;2022-07-30T02:57:52;8.80;;;4.75;;
64197;SDS011;50512;53.666;9.700;2022-07-30T03:00:18;8.98;;;5.38;;
64197;SDS011;50512;53.666;9.700;2022-07-30T03:02:45;14.52;;;5.05;;
64197;SDS011;50512;53.666;9.700;2022-07-30T03:05:12;8.15;;;4.63;;
64197;SDS011;50512;53.666;9.700;2022-07-30T03:07:40;10.70;;;5.07;;
64197;SDS011;50512;53.666;9.700;2022-07-30T03:10:07;12.50;;;4.93;;
64197;SDS011;50512;53.666;9.700;2022-07-30T03:12:33;15.45;;;5.70;;
64197;SDS011;50512;53.666;9.700;2022-07-30T03:15:00;11.95;;;5.53;;
64197;SDS011;50512;53.666;9.700;2022-07-30T03:17:26;11.32;;;4.97;;
64197;SDS011;50512;53.666;9.700;2022-07-30T03:19:55;11.63;;;5.20;;
64197;SDS011;50512;53.666;9.700;2022-07-30T03:22:24;12.50;;;5.53;;
64197;SDS011;50512;53.666;9.700;2022-07-30T03:24:52;10.23;;;5.10;;
64197;SDS011;50512;53.666;9.700;2022-07-30T03:27:19;12.85;;;5.20;;
64197;SDS011;50512;53.666;9.700;2022-07-30T03:29:46;16.38;;;5.30;;
64197;SDS011;50512;53.666;9.700;2022-07-30T03:32:14;12.95;;;5.50;;
64197;SDS011;50512;53.666;9.700;2022-07-30T03:34:40;10.70;;;5.43;;
64197;SDS011;50512;53.666;9.700;2022-07-30T03:37:07;11.35;;;5.50;;
64197;SDS011;50512;53.666;9.700;2022-07-30T03:39:33;12.68;;;5.18;;
64197;SDS011;50512;53.666;9.700;2022-07-30T03:42:01;12.05;;;5.80;;
64197;SDS011;50512;53.666;9.700;2022-07-30T03:44:27;11.07;;;5.15;;
64197;SDS011;50512;53.666;9.700;2022-07-30T03:46:54;9.57;;;5.40;;
64197;SDS011;50512;53.666;9.700;2022-07-30T03:49:20;10.82;;;5.32;;
64197;SDS011;50512;53.666;9.700;2022-07-30T03:51:47;14.93;;;5.78;;
64197;SDS011;50512;53.666;9.700;2022-07-30T03:54:14;12.48;;;5.13;;
64197;SDS011;50512;53.666;9.700;2022-07-30T03:56:40;8.52;;;4.95;;
64197;SDS011;50512;53.666;9.700;2022-07-30T03:59:07;11.98;;;5.40;;
64197;SDS011;50512;53.666;9.700;2022-07-30T04:01:33;9.85;;;5.25;;
64197;SDS011;50512;53.666;9.700;2022-07-30T04:04:05;9.27;;;4.70;;
64197;SDS011;50512;53.666;9.700;2022-07-30T04:06:31;11.25;;;5.45;;
64197;SDS011;50512;53.666;9.700;2022-07-30T04:08:57;9.95;;;5.25;;
64197;SDS011;50512;53.666;9.700;2022-07-30T04:11:22;9.48;;;4.85;;
64197;SDS011;50512;53.666;9.700;2022-07-30T04:13:47;8.43;;;5.32;;
64197;SDS011;50512;53.666;9.700;2022-07-30T04:16:15;9.68;;;4.68;;
64197;SDS011;50512;53.666;9.700;2022-07-30T04:18:46;9.73;;;5.15;;
64197;SDS011;50512;53.666;9.700;2022-07-30T04:21:14;10.45;;;4.90;;
64197;SDS011;50512;53.666;9.700;2022-07-30T04:23:42;10.30;;;4.80;;
64197;SDS011;50512;53.666;9.700;2022-07-30T04:26:08;8.77;;;4.60;;
64197;SDS011;50512;53.666;9.700;2022-07-30T04:28:34;9.38;;;5.30;;
64197;SDS011;50512;53.666;9.700;2022-07-30T04:31:00;14.05;;;5.40;;
64197;SDS011;50512;53.666;9.700;2022-07-30T04:33:27;11.43;;;5.72;;
64197;SDS011;50512;53.666;9.700;2022-07-30T04:35:52;10.73;;;4.75;;
64197;SDS011;50512;53.666;9.700;2022-07-30T04:38:18;11.13;;;4.88;;
64197;SDS011;50512;53.666;9.700;2022-07-30T04:40:44;11.10;;;5.10;;
64197;SDS011;50512;53.666;9.700;2022-07-30T04:43:10;11.68;;;4.20;;
64197;SDS011;50512;53.666;9.700;2022-07-30T04:45:36;11.85;;;4.63;;
64197;SDS011;50512;53.666;9.700;2022-07-30T04:48:03;9.20;;;5.07;;
64197;SDS011;50512;53.666;9.700;2022-07-30T04:50:30;7.85;;;4.38;;
64197;SDS011;50512;53.666;9.700;2022-07-30T04:52:58;10.20;;;4.82;;
64197;SDS011;50512;53.666;9.700;2022-07-30T04:55:24;12.73;;;5.13;;
64197;SDS011;50512;53.666;9.700;2022-07-30T04:57:51;11.20;;;4.63;;
64197;SDS011;50512;53.666;9.700;2022-07-30T05:00:17;9.60;;;4.75;;
64197;SDS011;50512;53.666;9.700;2022-07-30T05:02:43;13.43;;;5.72;;
64197;SDS011;50512;53.666;9.700;2022-07-30T05:05:10;12.80;;;4.40;;
64197;SDS011;50512;53.666;9.700;2022-07-30T05:07:37;7.43;;;4.30;;
64197;SDS011;50512;53.666;9.700;2022-07-30T05:10:04;12.50;;;4.88;;
64197;SDS011;50512;53.666;9.700;2022-07-30T05:12:31;11.20;;;4.75;;
64197;SDS011;50512;53.666;9.700;2022-07-30T05:14:57;10.70;;;4.75;;
64197;SDS011;50512;53.666;9.700;2022-07-30T05:17:22;11.95;;;4.55;;
64197;SDS011;50512;53.666;9.700;2022-07-30T05:19:48;9.77;;;4.45;;
64197;SDS011;50512;53.666;9.700;2022-07-30T05:22:13;10.32;;;4.20;;
64197;SDS011;50512;53.666;9.700;2022-07-30T05:24:40;9.32;;;4.20;;
64197;SDS011;50512;53.666;9.700;2022-07-30T05:27:05;11.95;;;4.47;;
64197;SDS011;50512;53.666;9.700;2022-07-30T05:29:31;11.45;;;4.03;;
64197;SDS011;50512;53.666;9.700;2022-07-30T05:31:56;10.48;;;4.57;;
64197;SDS011;50512;53.666;9.700;2022-07-30T05:34:22;9.35;;;4.57;;
64197;SDS011;50512;53.666;9.700;2022-07-30T05:36:47;11.18;;;4.40;;
64197;SDS011;50512;53.666;9.700;2022-07-30T05:39:13;12.60;;;4.47;;
64197;SDS011;50512;53.666;9.700;2022-07-30T05:41:40;7.38;;;4.40;;
64197;SDS011;50512;53.666;9.700;2022-07-30T05:44:05;17.02;;;5.57;;
64197;SDS011;50512;53.666;9.700;2022-07-30T05:46:31;14.50;;;4.88;;
64197;SDS011;50512;53.666;9.700;2022-07-30T05:48:56;9.57;;;4.95;;
64197;SDS011;50512;53.666;9.700;2022-07-30T05:51:22;7.43;;;4.47;;
64197;SDS011;50512;53.666;9.700;2022-07-30T05:53:47;12.20;;;5.28;;
64197;SDS011;50512;53.666;9.700;2022-07-30T05:56:13;10.13;;;4.70;;
64197;SDS011;50512;53.666;9.700;2022-07-30T05:58:40;10.30;;;4.93;;
64197;SDS011;50512;53.666;9.700;2022-07-30T06:01:06;12.55;;;4.78;;
64197;SDS011;50512;53.666;9.700;2022-07-30T06:03:31;8.50;;;4.32;;
64197;SDS011;50512;53.666;9.700;2022-07-30T06:05:57;9.88;;;4.38;;
64197;SDS011;50512;53.666;9.700;2022-07-30T06:08:22;7.47;;;4.45;;
64197;SDS011;50512;53.666;9.700;2022-07-30T06:10:48;12.23;;;4.60;;
64197;SDS011;50512;53.666;9.700;2022-07-30T06:13:13;10.88;;;4.63;;
64197;SDS011;50512;53.666;9.700;2022-07-30T06:15:40;9.90;;;4.40;;
64197;SDS011;50512;53.666;9.700;2022-07-30T06:18:05;9.23;;;4.45;;
64197;SDS011;50512;53.666;9.700;2022-07-30T06:20:31;12.27;;;4.38;;
64197;SDS011;50512;53.666;9.700;2022-07-30T06:22:56;11.63;;;4.57;;
64197;SDS011;50512;53.666;9.700;2022-07-30T06:25:22;9.35;;;4.85;;
64197;SDS011;50512;53.666;9.700;2022-07-30T06:27:47;11.48;;;4.70;;
64197;SDS011;50512;53.666;9.700;2022-07-30T06:30:13;13.25;;;5.03;;
64197;SDS011;50512;53.666;9.700;2022-07-30T06:32:40;13.20;;;4.18;;
64197;SDS011;50512;53.666;9.700;2022-07-30T06:35:05;8.57;;;4.57;;
64197;SDS011;50512;53.666;9.700;2022-07-30T06:37:31;13.10;;;4.88;;
64197;SDS011;50512;53.666;9.700;2022-07-30T06:39:57;10.98;;;5.60;;
64197;SDS011;50512;53.666;9.700;2022-07-30T06:42:22;9.85;;;5.00;;
64197;SDS011;50512;53.666;9.700;2022-07-30T06:44:48;34.45;;;5.75;;
64197;SDS011;50512;53.666;9.700;2022-07-30T06:47:18;9.82;;;4.65;;
64197;SDS011;50512;53.666;9.700;2022-07-30T06:49:45;10.85;;;4.95;;
64197;SDS011;50512;53.666;9.700;2022-07-30T06:52:10;10.18;;;4.78;;
64197;SDS011;50512;53.666;9.700;2022-07-30T06:54:36;13.57;;;4.68;;
64197;SDS011;50512;53.666;9.700;2022-07-30T06:57:01;13.50;;;4.80;;
64197;SDS011;50512;53.666;9.700;2022-07-30T06:59:26;8.25;;;4.75;;
64197;SDS011;50512;53.666;9.700;2022-07-30T07:01:52;8.05;;;4.60;;
64197;SDS011;50512;53.666;9.700;2022-07-30T07:04:17;11.70;;;4.65;;
64197;SDS011;50512;53.666;9.700;2022-07-30T07:06:44;7.72;;;4.63;;
64197;SDS011;50512;53.666;9.700;2022-07-30T07:09:10;13.80;;;5.22;;
64197;SDS011;50512;53.666;9.700;2022-07-30T07:11:35;9.75;;;4.63;;
64197;SDS011;50512;53.666;9.700;2022-07-30T07:14:00;13.05;;;4.97;;
64197;SDS011;50512;53.666;9.700;2022-07-30T07:16:26;11.55;;;4.90;;
64197;SDS011;50512;53.666;9.700;2022-07-30T07:18:51;9.43;;;4.72;;
64197;SDS011;50512;53.666;9.700;2022-07-30T07:21:17;13.95;;;4.75;;
64197;SDS011;50512;53.666;9.700;2022-07-30T07:23:44;10.52;;;5.10;;
64197;SDS011;50512;53.666;9.700;2022-07-30T07:26:10;9.80;;;4.72;;
64197;SDS011;50512;53.666;9.700;2022-07-30T07:28:36;9.43;;;5.13;;
64197;SDS011;50512;53.666;9.700;2022-07-30T07:31:01;11.68;;;5.05;;
64197;SDS011;50512;53.666;9.700;2022-07-30T07:33:27;7.15;;;4.45;;
64197;SDS011;50512;53.666;9.700;2022-07-30T07:35:52;8.50;;;4.68;;
64197;SDS011;50512;53.666;9.700;2022-07-30T07:38:18;9.63;;;4.57;;
64197;SDS011;50512;53.666;9.700;2022-07-30T07:40:45;11.15;;;4.95;;
64197;SDS011;50512;53.666;9.700;2022-07-30T07:43:10;7.03;;;4.70;;
64197;SDS011;50512;53.666;9.700;2022-07-30T07:45:36;7.85;;;4.85;;
64197;SDS011;50512;53.666;9.700;2022-07-30T07:48:01;11.13;;;5.20;;
64197;SDS011;50512;53.666;9.700;2022-07-30T07:50:26;9.55;;;4.63;;
64197;SDS011;50512;53.666;9.700;2022-07-30T07:52:52;9.25;;;5.13;;
64197;SDS011;50512;53.666;9.700;2022-07-30T07:55:18;13.65;;;4.65;;
64197;SDS011;50512;53.666;9.700;2022-07-30T07:57:44;8.52;;;4.80;;
64197;SDS011;50512;53.666;9.700;2022-07-30T08:00:11;11.18;;;5.00;;
64197;SDS011;50512;53.666;9.700;2022-07-30T08:02:38;12.65;;;5.03;;
64197;SDS011;50512;53.666;9.700;2022-07-30T08:05:04;12.65;;;5.85;;
64197;SDS011;50512;53.666;9.700;2022-07-30T08:07:30;14.45;;;5.72;;
64197;SDS011;50512;53.666;9.700;2022-07-30T08:09:56;8.93;;;5.10;;
64197;SDS011;50512;53.666;9.700;2022-07-30T08:12:22;12.43;;;5.00;;
64197;SDS011;50512;53.666;9.700;2022-07-30T08:14:49;10.73;;;5.63;;
64197;SDS011;50512;53.666;9.700;2022-07-30T08:17:14;10.70;;;4.93;;
64197;SDS011;50512;53.666;9.700;2022-07-30T08:19:40;12.68;;;6.03;;
64197;SDS011;50512;53.666;9.700;2022-07-30T08:22:05;10.25;;;5.93;;
64197;SDS011;50512;53.666;9.700;2022-07-30T08:24:31;13.65;;;5.70;;
64197;SDS011;50512;53.666;9.700;2022-07-30T08:26:56;9.65;;;5.60;;
64197;SDS011;50512;53.666;9.700;2022-07-30T08:29:22;9.85;;;5.00;;
64197;SDS011;50512;53.666;9.700;2022-07-30T08:31:49;12.50;;;5.10;;
64197;SDS011;50512;53.666;9.700;2022-07-30T08:34:14;11.60;;;5.18;;
64197;SDS011;50512;53.666;9.700;2022-07-30T08:36:40;10.48;;;5.60;;
64197;SDS011;50512;53.666;9.700;2022-07-30T08:39:06;21.58;;;6.18;;
64197;SDS011;50512;53.666;9.700;2022-07-30T08:41:31;15.10;;;6.90;;
64197;SDS011;50512;53.666;9.700;2022-07-30T08:43:57;15.10;;;7.00;;
64197;SDS011;50512;53.666;9.700;2022-07-30T08:46:24;11.63;;;6.97;;
64197;SDS011;50512;53.666;9.700;2022-07-30T08:48:54;8.20;;;5.60;;
64197;SDS011;50512;53.666;9.700;2022-07-30T08:51:20;18.70;;;5.88;;
64197;SDS011;50512;53.666;9.700;2022-07-30T08:53:47;18.35;;;7.05;;
64197;SDS011;50512;53.666;9.700;2022-07-30T08:56:13;15.48;;;6.53;;
64197;SDS011;50512;53.666;9.700;2022-07-30T08:58:38;12.45;;;6.65;;
64197;SDS011;50512;53.666;9.700;2022-07-30T09:01:05;21.05;;;7.10;;
64197;SDS011;50512;53.666;9.700;2022-07-30T09:03:31;10.95;;;6.00;;
64197;SDS011;50512;53.666;9.700;2022-07-30T09:05:59;11.45;;;6.22;;
64197;SDS011;50512;53.666;9.700;2022-07-30T09:08:25;11.90;;;6.13;;
64197;SDS011;50512;53.666;9.700;2022-07-30T09:10:51;10.32;;;6.30;;
64197;SDS011;50512;53.666;9.700;2022-07-30T09:13:23;15.50;;;6.20;;
64197;SDS011;50512;53.666;9.700;2022-07-30T09:15:50;9.75;;;5.63;;
64197;SDS011;50512;53.666;9.700;2022-07-30T09:18:19;12.27;;;5.15;;
64197;SDS011;50512;53.666;9.700;2022-07-30T09:20:51;9.40;;;6.05;;
64197;SDS011;50512;53.666;9.700;2022-07-30T09:23:18;15.95;;;6.00;;
64197;SDS011;50512;53.666;9.700;2022-07-30T09:25:44;13.93;;;6.80;;
64197;SDS011;50512;53.666;9.700;2022-07-30T09:28:10;14.50;;;5.93;;
64197;SDS011;50512;53.666;9.700;2022-07-30T09:30:44;9.10;;;5.80;;
64197;SDS011;50512;53.666;9.700;2022-07-30T09:33:11;14.75;;;5.93;;
64197;SDS011;50512;53.666;9.700;2022-07-30T09:35:37;80.28;;;12.52;;
64197;SDS011;50512;53.666;9.700;2022-07-30T09:38:03;103.90;;;15.38;;
64197;SDS011;50512;53.666;9.700;2022-07-30T09:40:31;14.65;;;6.03;;
64197;SDS011;50512;53.666;9.700;2022-07-30T09:43:00;12.77;;;6.50;;
64197;SDS011;50512;53.666;9.700;2022-07-30T09:45:26;12.20;;;6.60;;
64197;SDS011;50512;53.666;9.700;2022-07-30T09:47:52;12.60;;;5.97;;
64197;SDS011;50512;53.666;9.700;2022-07-30T09:50:17;10.32;;;6.00;;
64197;SDS011;50512;53.666;9.700;2022-07-30T09:52:44;14.98;;;6.25;;
64197;SDS011;50512;53.666;9.700;2022-07-30T09:55:11;16.00;;;6.47;;
64197;SDS011;50512;53.666;9.700;2022-07-30T09:57:52;12.32;;;6.20;;
64197;SDS011;50512;53.666;9.700;2022-07-30T10:00:19;44.53;;;10.55;;
64197;SDS011;50512;53.666;9.700;2022-07-30T10:02:47;10.20;;;5.68;;
64197;SDS011;50512;53.666;9.700;2022-07-30T10:05:13;13.50;;;6.88;;
64197;SDS011;50512;53.666;9.700;2022-07-30T10:07:50;11.27;;;7.10;;
64197;SDS011;50512;53.666;9.700;2022-07-30T10:10:16;17.02;;;6.80;;
64197;SDS011;50512;53.666;9.700;2022-07-30T10:12:45;14.10;;;6.28;;
64197;SDS011;50512;53.666;9.700;2022-07-30T10:15:12;10.20;;;5.68;;
64197;SDS011;50512;53.666;9.700;2022-07-30T10:17:42;11.20;;;6.20;;
64197;SDS011;50512;53.666;9.700;2022-07-30T10:20:09;13.45;;;6.32;;
64197;SDS011;50512;53.666;9.700;2022-07-30T10:22:35;12.02;;;6.45;;
64197;SDS011;50512;53.666;9.700;2022-07-30T10:25:01;14.45;;;6.28;;
64197;SDS011;50512;53.666;9.700;2022-07-30T10:27:27;14.13;;;6.22;;
64197;SDS011;50512;53.666;9.700;2022-07-30T10:29:54;15.23;;;6.80;;
64197;SDS011;50512;53.666;9.700;2022-07-30T10:32:21;16.73;;;6.70;;
64197;SDS011;50512;53.666;9.700;2022-07-30T10:34:47;13.35;;;7.03;;
64197;SDS011;50512;53.666;9.700;2022-07-30T10:37:13;15.38;;;6.57;;
64197;SDS011;50512;53.666;9.700;2022-07-30T10:39:42;18.00;;;6.45;;
64197;SDS011;50512;53.666;9.700;2022-07-30T10:42:14;8.93;;;5.80;;
64197;SDS011;50512;53.666;9.700;2022-07-30T10:44:58;19.65;;;6.65;;
64197;SDS011;50512;53.666;9.700;2022-07-30T10:47:33;13.20;;;6.60;;
64197;SDS011;50512;53.666;9.700;2022-07-30T10:50:04;15.93;;;6.45;;
64197;SDS011;50512;53.666;9.700;2022-07-30T10:52:41;13.38;;;7.10;;
64197;SDS011;50512;53.666;9.700;2022-07-30T10:55:11;22.20;;;7.60;;
64197;SDS011;50512;53.666;9.700;2022-07-30T10:57:41;13.13;;;7.20;;
64197;SDS011;50512;53.666;9.700;2022-07-30T11:00:22;14.02;;;6.72;;
64197;SDS011;50512;53.666;9.700;2022-07-30T11:05:36;19.77;;;8.98;;
64197;SDS011;50512;53.666;9.700;2022-07-30T11:10:56;17.30;;;8.05;;
64197;SDS011;50512;53.666;9.700;2022-07-30T11:16:21;11.35;;;6.80;;
64197;SDS011;50512;53.666;9.700;2022-07-30T11:19:07;16.73;;;8.60;;
64197;SDS011;50512;53.666;9.700;2022-07-30T11:21:33;22.17;;;8.55;;
64197;SDS011;50512;53.666;9.700;2022-07-30T11:23:59;15.50;;;7.45;;
64197;SDS011;50512;53.666;9.700;2022-07-30T11:34:49;32.65;;;8.82;;
64197;SDS011;50512;53.666;9.700;2022-07-30T11:37:15;14.07;;;8.07;;
64197;SDS011;50512;53.666;9.700;2022-07-30T11:42:33;21.95;;;8.70;;
64197;SDS011;50512;53.666;9.700;2022-07-30T11:47:51;22.60;;;9.18;;
64197;SDS011;50512;53.666;9.700;2022-07-30T11:50:18;23.52;;;8.48;;
64197;SDS011;50512;53.666;9.700;2022-07-30T11:52:47;15.45;;;8.02;;
64197;SDS011;50512;53.666;9.700;2022-07-30T11:55:13;13.98;;;7.43;;
64197;SDS011;50512;53.666;9.700;2022-07-30T11:57:46;17.75;;;7.97;;
64197;SDS011;50512;53.666;9.700;2022-07-30T12:00:12;13.93;;;7.28;;
64197;SDS011;50512;53.666;9.700;2022-07-30T12:02:38;14.02;;;7.90;;
64197;SDS011;50512;53.666;9.700;2022-07-30T12:05:05;21.70;;;8.90;;
64197;SDS011;50512;53.666;9.700;2022-07-30T12:07:31;15.95;;;8.77;;
64197;SDS011;50512;53.666;9.700;2022-07-30T12:10:10;64.22;;;12.52;;
64197;SDS011;50512;53.666;9.700;2022-07-30T12:12:36;19.83;;;8.80;;
64197;SDS011;50512;53.666;9.700;2022-07-30T12:15:02;17.85;;;9.15;;
64197;SDS011;50512;53.666;9.700;2022-07-30T12:17:38;13.30;;;7.43;;
64197;SDS011;50512;53.666;9.700;2022-07-30T12:20:12;142.73;;;16.88;;
64197;SDS011;50512;53.666;9.700;2022-07-30T12:22:39;61.53;;;12.38;;
64197;SDS011;50512;53.666;9.700;2022-07-30T12:25:05;19.33;;;8.30;;
64197;SDS011;50512;53.666;9.700;2022-07-30T12:27:32;15.90;;;8.85;;
64197;SDS011;50512;53.666;9.700;2022-07-30T12:29:57;17.65;;;8.30;;
64197;SDS011;50512;53.666;9.700;2022-07-30T12:32:23;14.38;;;8.55;;
64197;SDS011;50512;53.666;9.700;2022-07-30T12:34:52;15.35;;;8.02;;
64197;SDS011;50512;53.666;9.700;2022-07-30T12:37:19;16.15;;;7.90;;
64197;SDS011;50512;53.666;9.700;2022-07-30T12:39:44;17.23;;;9.27;;
64197;SDS011;50512;53.666;9.700;2022-07-30T12:42:16;20.63;;;9.88;;
64197;SDS011;50512;53.666;9.700;2022-07-30T12:44:42;14.68;;;8.00;;
64197;SDS011;50512;53.666;9.700;2022-07-30T12:47:17;18.42;;;8.93;;
64197;SDS011;50512;53.666;9.700;2022-07-30T12:49:43;21.98;;;8.85;;
64197;SDS011;50512;53.666;9.700;2022-07-30T12:52:09;16.75;;;8.77;;
64197;SDS011;50512;53.666;9.700;2022-07-30T12:54:44;14.00;;;7.15;;
64197;SDS011;50512;53.666;9.700;2022-07-30T12:57:21;15.18;;;8.88;;
64197;SDS011;50512;53.666;9.700;2022-07-30T12:59:46;19.23;;;8.77;;
64197;SDS011;50512;53.666;9.700;2022-07-30T13:02:29;16.52;;;8.35;;
64197;SDS011;50512;53.666;9.700;2022-07-30T13:04:55;13.07;;;7.05;;
64197;SDS011;50512;53.666;9.700;2022-07-30T13:07:20;15.13;;;7.85;;
64197;SDS011;50512;53.666;9.700;2022-07-30T13:09:47;16.90;;;7.43;;
64197;SDS011;50512;53.666;9.700;2022-07-30T13:12:30;15.25;;;7.78;;
64197;SDS011;50512;53.666;9.700;2022-07-30T13:14:56;15.38;;;7.55;;
64197;SDS011;50512;53.666;9.700;2022-07-30T13:17:22;16.13;;;9.80;;
64197;SDS011;50512;53.666;9.700;2022-07-30T13:19:48;16.05;;;7.47;;
64197;SDS011;50512;53.666;9.700;2022-07-30T13:22:13;16.20;;;7.47;;
64197;SDS011;50512;53.666;9.700;2022-07-30T13:24:38;24.05;;;7.82;;
64197;SDS011;50512;53.666;9.700;2022-07-30T13:27:05;13.43;;;7.13;;
64197;SDS011;50512;53.666;9.700;2022-07-30T13:29:31;13.45;;;6.63;;
64197;SDS011;50512;53.666;9.700;2022-07-30T13:31:56;12.45;;;7.25;;
64197;SDS011;50512;53.666;9.700;2022-07-30T13:34:21;17.92;;;7.28;;
64197;SDS011;50512;53.666;9.700;2022-07-30T13:36:47;12.15;;;6.90;;
64197;SDS011;50512;53.666;9.700;2022-07-30T13:39:13;15.55;;;6.60;;
64197;SDS011;50512;53.666;9.700;2022-07-30T13:41:38;21.77;;;7.90;;
64197;SDS011;50512;53.666;9.700;2022-07-30T13:44:05;17.25;;;6.50;;
64197;SDS011;50512;53.666;9.700;2022-07-30T13:46:31;15.32;;;6.53;;
64197;SDS011;50512;53.666;9.700;2022-07-30T13:48:56;15.60;;;7.43;;
64197;SDS011;50512;53.666;9.700;2022-07-30T13:51:21;12.43;;;6.75;;
64197;SDS011;50512;53.666;9.700;2022-07-30T13:53:47;14.15;;;6.45;;
64197;SDS011;50512;53.666;9.700;2022-07-30T13:56:12;18.40;;;6.20;;
64197;SDS011;50512;53.666;9.700;2022-07-30T13:58:38;12.35;;;6.68;;
64197;SDS011;50512;53.666;9.700;2022-07-30T14:01:05;14.82;;;6.63;;
64197;SDS011;50512;53.666;9.700;2022-07-30T14:03:30;18.17;;;7.40;;
64197;SDS011;50512;53.666;9.700;2022-07-30T14:05:56;12.50;;;6.72;;
64197;SDS011;50512;53.666;9.700;2022-07-30T14:08:21;22.67;;;7.82;;
64197;SDS011;50512;53.666;9.700;2022-07-30T14:10:47;14.93;;;7.35;;
64197;SDS011;50512;53.666;9.700;2022-07-30T14:13:13;15.95;;;7.07;;
64197;SDS011;50512;53.666;9.700;2022-07-30T14:15:38;20.48;;;6.85;;
64197;SDS011;50512;53.666;9.700;2022-07-30T14:18:05;14.35;;;7.05;;
64197;SDS011;50512;53.666;9.700;2022-07-30T14:20:30;14.68;;;6.53;;
64197;SDS011;50512;53.666;9.700;2022-07-30T14:22:56;11.52;;;7.35;;
64197;SDS011;50512;53.666;9.700;2022-07-30T14:25:21;11.07;;;6.10;;
64197;SDS011;50512;53.666;9.700;2022-07-30T14:27:47;14.65;;;6.97;;
64197;SDS011;50512;53.666;9.700;2022-07-30T14:30:12;13.02;;;7.47;;
64197;SDS011;50512;53.666;9.700;2022-07-30T14:32:38;14.02;;;7.03;;
64197;SDS011;50512;53.666;9.700;2022-07-30T14:35:06;12.18;;;7.18;;
64197;SDS011;50512;53.666;9.700;2022-07-30T14:37:33;15.52;;;7.70;;
64197;SDS011;50512;53.666;9.700;2022-07-30T14:39:59;14.00;;;8.52;;
64197;SDS011;50512;53.666;9.700;2022-07-30T14:42:24;20.80;;;10.10;;
64197;SDS011;50512;53.666;9.700;2022-07-30T14:44:50;22.73;;;10.90;;
64197;SDS011;50512;53.666;9.700;2022-07-30T14:47:15;20.45;;;9.23;;
64197;SDS011;50512;53.666;9.700;2022-07-30T14:49:41;16.20;;;8.05;;
64197;SDS011;50512;53.666;9.700;2022-07-30T14:52:08;17.08;;;8.13;;
64197;SDS011;50512;53.666;9.700;2022-07-30T14:54:33;20.55;;;9.10;;
64197;SDS011;50512;53.666;9.700;2022-07-30T14:56:59;13.63;;;7.25;;